sensor_id;sensor_type;location;lat;lon;timestamp;temperature;humidity
65707;SHT31;52423;43.512;5.220;2023-08-20T00:02:13;24.70;55.20
65707;SHT31;52423;43.512;5.220;2023-08-20T00:04:39;24.69;55.55
65707;SHT31;52423;43.512;5.220;2023-08-20T00:07:06;24.46;55.60
65707;SHT31;52423;43.512;5.220;2023-08-20T00:09:32;24.42;55.32
65707;SHT31;52423;43.512;5.220;2023-08-20T00:11:58;24.37;54.82
65707;SHT31;52423;43.512;5.220;2023-08-20T00:14:53;24.52;54.57
65707;SHT31;52423;43.512;5.220;2023-08-20T00:17:24;24.66;53.90
65707;SHT31;52423;43.512;5.220;2023-08-20T00:19:55;24.52;54.46
65707;SHT31;52423;43.512;5.220;2023-08-20T00:22:22;24.55;54.24
65707;SHT31;52423;43.512;5.220;2023-08-20T00:24:48;24.59;54.14
65707;SHT31;52423;43.512;5.220;2023-08-20T00:27:13;24.59;54.48
65707;SHT31;52423;43.512;5.220;2023-08-20T00:29:39;24.40;55.54
65707;SHT31;52423;43.512;5.220;2023-08-20T00:32:04;24.26;55.80
65707;SHT31;52423;43.512;5.220;2023-08-20T00:34:30;24.23;55.56
65707;SHT31;52423;43.512;5.220;2023-08-20T00:36:55;24.29;55.27
65707;SHT31;52423;43.512;5.220;2023-08-20T00:39:20;24.23;56.13
65707;SHT31;52423;43.512;5.220;2023-08-20T00:41:46;24.16;56.17
65707;SHT31;52423;43.512;5.220;2023-08-20T00:44:11;24.28;55.49
65707;SHT31;52423;43.512;5.220;2023-08-20T00:46:37;24.37;55.36
65707;SHT31;52423;43.512;5.220;2023-08-20T00:49:02;24.39;55.73
65707;SHT31;52423;43.512;5.220;2023-08-20T00:51:28;24.29;55.99
65707;SHT31;52423;43.512;5.220;2023-08-20T00:53:54;24.29;55.23
65707;SHT31;52423;43.512;5.220;2023-08-20T00:56:20;24.26;54.83
65707;SHT31;52423;43.512;5.220;2023-08-20T00:58:46;24.21;54.75
65707;SHT31;52423;43.512;5.220;2023-08-20T01:01:11;24.23;54.95
65707;SHT31;52423;43.512;5.220;2023-08-20T01:03:37;24.25;55.14
65707;SHT31;52423;43.512;5.220;2023-08-20T01:06:14;24.22;55.43
65707;SHT31;52423;43.512;5.220;2023-08-20T01:08:46;24.18;54.96
65707;SHT31;52423;43.512;5.220;2023-08-20T01:11:27;24.14;55.05
65707;SHT31;52423;43.512;5.220;2023-08-20T01:13:55;24.08;55.77
65707;SHT31;52423;43.512;5.220;2023-08-20T01:16:20;23.95;55.85
65707;SHT31;52423;43.512;5.220;2023-08-20T01:18:47;23.98;55.58
65707;SHT31;52423;43.512;5.220;2023-08-20T01:21:27;23.98;55.51
65707;SHT31;52423;43.512;5.220;2023-08-20T01:26:56;23.97;55.46
65707;SHT31;52423;43.512;5.220;2023-08-20T01:29:26;24.00;55.08
65707;SHT31;52423;43.512;5.220;2023-08-20T01:31:53;24.00;55.35
65707;SHT31;52423;43.512;5.220;2023-08-20T01:34:19;23.97;55.79
65707;SHT31;52423;43.512;5.220;2023-08-20T01:36:44;23.82;56.51
65707;SHT31;52423;43.512;5.220;2023-08-20T01:39:09;23.77;56.77
65707;SHT31;52423;43.512;5.220;2023-08-20T01:41:35;23.79;55.61
65707;SHT31;52423;43.512;5.220;2023-08-20T01:44:00;23.84;54.75
65707;SHT31;52423;43.512;5.220;2023-08-20T01:46:26;23.91;54.75
65707;SHT31;52423;43.512;5.220;2023-08-20T01:48:51;23.79;55.74
65707;SHT31;52423;43.512;5.220;2023-08-20T01:51:17;23.65;56.60
65707;SHT31;52423;43.512;5.220;2023-08-20T01:53:42;23.73;55.01
65707;SHT31;52423;43.512;5.220;2023-08-20T01:56:11;23.71;55.22
65707;SHT31;52423;43.512;5.220;2023-08-20T01:58:37;23.74;55.39
65707;SHT31;52423;43.512;5.220;2023-08-20T02:01:03;23.84;55.21
65707;SHT31;52423;43.512;5.220;2023-08-20T02:03:28;23.71;55.92
65707;SHT31;52423;43.512;5.220;2023-08-20T02:05:54;23.63;56.44
65707;SHT31;52423;43.512;5.220;2023-08-20T02:08:19;23.54;56.90
65707;SHT31;52423;43.512;5.220;2023-08-20T02:10:45;23.51;56.93
65707;SHT31;52423;43.512;5.220;2023-08-20T02:13:10;23.46;57.26
65707;SHT31;52423;43.512;5.220;2023-08-20T02:15:36;23.46;56.85
65707;SHT31;52423;43.512;5.220;2023-08-20T02:18:01;23.57;55.27
65707;SHT31;52423;43.512;5.220;2023-08-20T02:20:27;23.64;54.97
65707;SHT31;52423;43.512;5.220;2023-08-20T02:22:53;23.68;54.66
65707;SHT31;52423;43.512;5.220;2023-08-20T02:25:19;23.61;55.72
65707;SHT31;52423;43.512;5.220;2023-08-20T02:27:44;23.53;55.95
65707;SHT31;52423;43.512;5.220;2023-08-20T02:30:10;23.46;56.38
65707;SHT31;52423;43.512;5.220;2023-08-20T02:32:38;23.50;54.96
65707;SHT31;52423;43.512;5.220;2023-08-20T02:35:04;23.49;54.95
65707;SHT31;52423;43.512;5.220;2023-08-20T02:37:31;23.53;54.83
65707;SHT31;52423;43.512;5.220;2023-08-20T02:39:56;23.53;55.70
65707;SHT31;52423;43.512;5.220;2023-08-20T02:42:22;23.53;55.69
65707;SHT31;52423;43.512;5.220;2023-08-20T02:44:48;23.53;55.62
65707;SHT31;52423;43.512;5.220;2023-08-20T02:47:13;23.33;55.81
65707;SHT31;52423;43.512;5.220;2023-08-20T02:49:38;23.24;56.17
65707;SHT31;52423;43.512;5.220;2023-08-20T02:52:04;23.24;56.22
65707;SHT31;52423;43.512;5.220;2023-08-20T02:54:29;23.17;56.61
65707;SHT31;52423;43.512;5.220;2023-08-20T02:56:57;23.06;56.70
65707;SHT31;52423;43.512;5.220;2023-08-20T02:59:23;23.10;56.23
65707;SHT31;52423;43.512;5.220;2023-08-20T03:01:48;23.05;56.73
65707;SHT31;52423;43.512;5.220;2023-08-20T03:04:14;23.00;56.88
65707;SHT31;52423;43.512;5.220;2023-08-20T03:06:39;23.00;56.55
65707;SHT31;52423;43.512;5.220;2023-08-20T03:09:04;22.98;56.72
65707;SHT31;52423;43.512;5.220;2023-08-20T03:11:31;23.02;56.44
65707;SHT31;52423;43.512;5.220;2023-08-20T03:13:56;23.00;56.14
65707;SHT31;52423;43.512;5.220;2023-08-20T03:16:21;23.10;56.17
65707;SHT31;52423;43.512;5.220;2023-08-20T03:18:47;23.00;56.49
65707;SHT31;52423;43.512;5.220;2023-08-20T03:21:13;22.93;56.20
65707;SHT31;52423;43.512;5.220;2023-08-20T03:23:38;22.95;56.01
65707;SHT31;52423;43.512;5.220;2023-08-20T03:26:04;22.99;55.60
65707;SHT31;52423;43.512;5.220;2023-08-20T03:28:29;23.06;55.26
65707;SHT31;52423;43.512;5.220;2023-08-20T03:30:54;23.05;55.93
65707;SHT31;52423;43.512;5.220;2023-08-20T03:33:20;23.09;55.95
65707;SHT31;52423;43.512;5.220;2023-08-20T03:35:46;22.96;56.39
65707;SHT31;52423;43.512;5.220;2023-08-20T03:38:11;22.96;56.07
65707;SHT31;52423;43.512;5.220;2023-08-20T03:40:36;22.86;56.79
65707;SHT31;52423;43.512;5.220;2023-08-20T03:43:02;22.98;55.35
65707;SHT31;52423;43.512;5.220;2023-08-20T03:45:28;23.03;55.55
65707;SHT31;52423;43.512;5.220;2023-08-20T03:47:55;22.99;56.07
65707;SHT31;52423;43.512;5.220;2023-08-20T03:50:20;22.92;56.15
65707;SHT31;52423;43.512;5.220;2023-08-20T03:52:45;22.85;56.59
65707;SHT31;52423;43.512;5.220;2023-08-20T03:55:11;22.85;56.74
65707;SHT31;52423;43.512;5.220;2023-08-20T03:57:36;22.92;56.62
65707;SHT31;52423;43.512;5.220;2023-08-20T04:00:02;22.82;56.37
65707;SHT31;52423;43.512;5.220;2023-08-20T04:02:29;22.85;55.78
65707;SHT31;52423;43.512;5.220;2023-08-20T04:04:54;22.92;55.20
65707;SHT31;52423;43.512;5.220;2023-08-20T04:07:22;22.98;54.58
65707;SHT31;52423;43.512;5.220;2023-08-20T04:09:47;23.00;53.86
65707;SHT31;52423;43.512;5.220;2023-08-20T04:12:13;23.02;53.64
65707;SHT31;52423;43.512;5.220;2023-08-20T04:14:39;23.05;53.74
65707;SHT31;52423;43.512;5.220;2023-08-20T04:17:04;23.02;53.94
65707;SHT31;52423;43.512;5.220;2023-08-20T04:19:29;23.07;53.30
65707;SHT31;52423;43.512;5.220;2023-08-20T04:21:55;23.00;53.36
65707;SHT31;52423;43.512;5.220;2023-08-20T04:24:20;23.06;53.64
65707;SHT31;52423;43.512;5.220;2023-08-20T04:26:46;22.99;53.35
65707;SHT31;52423;43.512;5.220;2023-08-20T04:29:11;22.92;54.62
65707;SHT31;52423;43.512;5.220;2023-08-20T04:31:36;22.93;54.77
65707;SHT31;52423;43.512;5.220;2023-08-20T04:34:02;22.88;54.16
65707;SHT31;52423;43.512;5.220;2023-08-20T04:36:27;22.95;53.33
65707;SHT31;52423;43.512;5.220;2023-08-20T04:38:53;22.99;53.88
65707;SHT31;52423;43.512;5.220;2023-08-20T04:41:18;22.95;53.14
65707;SHT31;52423;43.512;5.220;2023-08-20T04:43:43;22.99;53.18
65707;SHT31;52423;43.512;5.220;2023-08-20T04:46:09;22.98;53.20
65707;SHT31;52423;43.512;5.220;2023-08-20T04:48:34;22.95;52.86
65707;SHT31;52423;43.512;5.220;2023-08-20T04:51:00;22.89;52.92
65707;SHT31;52423;43.512;5.220;2023-08-20T04:53:25;22.95;52.90
65707;SHT31;52423;43.512;5.220;2023-08-20T04:55:51;22.93;53.04
65707;SHT31;52423;43.512;5.220;2023-08-20T04:58:16;22.96;53.52
65707;SHT31;52423;43.512;5.220;2023-08-20T05:00:42;22.93;53.31
65707;SHT31;52423;43.512;5.220;2023-08-20T05:03:07;22.95;53.26
65707;SHT31;52423;43.512;5.220;2023-08-20T05:05:33;22.95;53.24
65707;SHT31;52423;43.512;5.220;2023-08-20T05:07:58;22.98;53.12
65707;SHT31;52423;43.512;5.220;2023-08-20T05:10:23;22.93;53.30
65707;SHT31;52423;43.512;5.220;2023-08-20T05:12:49;22.93;53.34
65707;SHT31;52423;43.512;5.220;2023-08-20T05:15:14;22.95;53.32
65707;SHT31;52423;43.512;5.220;2023-08-20T05:17:39;22.93;53.44
65707;SHT31;52423;43.512;5.220;2023-08-20T05:20:05;23.03;53.30
65707;SHT31;52423;43.512;5.220;2023-08-20T05:22:31;23.05;52.83
65707;SHT31;52423;43.512;5.220;2023-08-20T05:24:56;23.03;52.92
65707;SHT31;52423;43.512;5.220;2023-08-20T05:27:22;23.09;52.92
65707;SHT31;52423;43.512;5.220;2023-08-20T05:29:47;23.12;53.05
65707;SHT31;52423;43.512;5.220;2023-08-20T05:32:13;23.26;52.69
65707;SHT31;52423;43.512;5.220;2023-08-20T05:34:39;23.26;52.33
65707;SHT31;52423;43.512;5.220;2023-08-20T05:37:05;23.37;52.11
65707;SHT31;52423;43.512;5.220;2023-08-20T05:39:35;23.44;51.92
65707;SHT31;52423;43.512;5.220;2023-08-20T05:42:01;23.51;51.91
65707;SHT31;52423;43.512;5.220;2023-08-20T05:44:27;23.55;51.94
65707;SHT31;52423;43.512;5.220;2023-08-20T05:46:52;23.64;51.98
65707;SHT31;52423;43.512;5.220;2023-08-20T05:49:18;23.71;51.52
65707;SHT31;52423;43.512;5.220;2023-08-20T05:51:43;23.78;51.59
65707;SHT31;52423;43.512;5.220;2023-08-20T05:54:09;23.85;51.73
65707;SHT31;52423;43.512;5.220;2023-08-20T05:56:35;23.91;51.60
65707;SHT31;52423;43.512;5.220;2023-08-20T05:59:00;24.01;51.40
65707;SHT31;52423;43.512;5.220;2023-08-20T06:01:25;24.09;51.71
65707;SHT31;52423;43.512;5.220;2023-08-20T06:03:51;24.14;51.47
65707;SHT31;52423;43.512;5.220;2023-08-20T06:06:16;24.23;50.75
65707;SHT31;52423;43.512;5.220;2023-08-20T06:08:42;24.35;50.94
65707;SHT31;52423;43.512;5.220;2023-08-20T06:11:07;24.42;50.85
65707;SHT31;52423;43.512;5.220;2023-08-20T06:13:32;24.53;50.67
65707;SHT31;52423;43.512;5.220;2023-08-20T06:15:58;24.60;49.88
65707;SHT31;52423;43.512;5.220;2023-08-20T06:18:23;24.73;49.77
65707;SHT31;52423;43.512;5.220;2023-08-20T06:20:48;24.83;50.15
65707;SHT31;52423;43.512;5.220;2023-08-20T06:23:14;24.88;50.12
65707;SHT31;52423;43.512;5.220;2023-08-20T06:25:39;24.97;49.44
65707;SHT31;52423;43.512;5.220;2023-08-20T06:28:05;25.06;49.45
65707;SHT31;52423;43.512;5.220;2023-08-20T06:30:30;25.15;48.80
65707;SHT31;52423;43.512;5.220;2023-08-20T06:32:56;25.24;48.43
65707;SHT31;52423;43.512;5.220;2023-08-20T06:35:21;25.31;47.79
65707;SHT31;52423;43.512;5.220;2023-08-20T06:37:46;25.39;47.91
65707;SHT31;52423;43.512;5.220;2023-08-20T06:40:12;25.49;47.98
65707;SHT31;52423;43.512;5.220;2023-08-20T06:42:39;25.61;47.45
65707;SHT31;52423;43.512;5.220;2023-08-20T06:45:04;25.65;47.56
65707;SHT31;52423;43.512;5.220;2023-08-20T06:47:30;25.79;47.68
65707;SHT31;52423;43.512;5.220;2023-08-20T06:49:55;25.90;47.09
65707;SHT31;52423;43.512;5.220;2023-08-20T06:52:21;26.00;46.05
65707;SHT31;52423;43.512;5.220;2023-08-20T06:54:46;26.09;45.74
65707;SHT31;52423;43.512;5.220;2023-08-20T06:57:11;26.29;45.81
65707;SHT31;52423;43.512;5.220;2023-08-20T06:59:37;26.48;45.84
65707;SHT31;52423;43.512;5.220;2023-08-20T07:02:02;26.60;45.57
65707;SHT31;52423;43.512;5.220;2023-08-20T07:04:28;26.70;45.52
65707;SHT31;52423;43.512;5.220;2023-08-20T07:06:54;26.77;45.06
65707;SHT31;52423;43.512;5.220;2023-08-20T07:09:19;26.90;44.73
65707;SHT31;52423;43.512;5.220;2023-08-20T07:11:45;26.96;44.76
65707;SHT31;52423;43.512;5.220;2023-08-20T07:14:10;27.02;43.85
65707;SHT31;52423;43.512;5.220;2023-08-20T07:16:36;27.04;43.98
65707;SHT31;52423;43.512;5.220;2023-08-20T07:19:01;27.36;42.34
65707;SHT31;52423;43.512;5.220;2023-08-20T07:21:26;27.41;42.50
65707;SHT31;52423;43.512;5.220;2023-08-20T07:23:52;27.39;42.66
65707;SHT31;52423;43.512;5.220;2023-08-20T07:26:17;27.54;41.96
65707;SHT31;52423;43.512;5.220;2023-08-20T07:28:43;27.80;41.07
65707;SHT31;52423;43.512;5.220;2023-08-20T07:31:26;28.10;41.15
65707;SHT31;52423;43.512;5.220;2023-08-20T07:33:52;28.31;40.58
65707;SHT31;52423;43.512;5.220;2023-08-20T07:36:19;28.37;39.81
65707;SHT31;52423;43.512;5.220;2023-08-20T07:38:47;28.68;38.84
65707;SHT31;52423;43.512;5.220;2023-08-20T07:41:12;28.80;38.50
65707;SHT31;52423;43.512;5.220;2023-08-20T07:43:38;28.95;39.24
65707;SHT31;52423;43.512;5.220;2023-08-20T07:46:05;29.10;39.39
65707;SHT31;52423;43.512;5.220;2023-08-20T07:48:30;29.14;39.41
65707;SHT31;52423;43.512;5.220;2023-08-20T07:50:56;29.09;39.66
65707;SHT31;52423;43.512;5.220;2023-08-20T07:53:21;29.23;39.60
65707;SHT31;52423;43.512;5.220;2023-08-20T07:55:47;29.19;41.03
65707;SHT31;52423;43.512;5.220;2023-08-20T07:58:12;29.19;41.24
65707;SHT31;52423;43.512;5.220;2023-08-20T08:00:38;29.27;42.59
65707;SHT31;52423;43.512;5.220;2023-08-20T08:03:03;29.19;43.83
65707;SHT31;52423;43.512;5.220;2023-08-20T08:05:29;29.24;43.44
65707;SHT31;52423;43.512;5.220;2023-08-20T08:07:54;29.34;43.93
65707;SHT31;52423;43.512;5.220;2023-08-20T08:10:20;29.33;44.09
65707;SHT31;52423;43.512;5.220;2023-08-20T08:12:45;29.34;44.59
65707;SHT31;52423;43.512;5.220;2023-08-20T08:15:11;29.41;44.29
65707;SHT31;52423;43.512;5.220;2023-08-20T08:17:37;29.41;43.91
65707;SHT31;52423;43.512;5.220;2023-08-20T08:20:02;29.40;44.49
65707;SHT31;52423;43.512;5.220;2023-08-20T08:22:28;29.40;46.71
65707;SHT31;52423;43.512;5.220;2023-08-20T08:24:53;29.43;48.87
65707;SHT31;52423;43.512;5.220;2023-08-20T08:27:19;29.37;49.89
65707;SHT31;52423;43.512;5.220;2023-08-20T08:29:44;29.37;51.82
65707;SHT31;52423;43.512;5.220;2023-08-20T08:32:10;29.38;52.94
65707;SHT31;52423;43.512;5.220;2023-08-20T08:34:35;29.49;53.27
65707;SHT31;52423;43.512;5.220;2023-08-20T08:37:01;29.50;53.66
65707;SHT31;52423;43.512;5.220;2023-08-20T08:39:26;29.58;53.71
65707;SHT31;52423;43.512;5.220;2023-08-20T08:41:57;29.44;54.05
65707;SHT31;52423;43.512;5.220;2023-08-20T08:44:24;29.57;54.27
65707;SHT31;52423;43.512;5.220;2023-08-20T08:46:50;29.54;54.37
65707;SHT31;52423;43.512;5.220;2023-08-20T08:49:16;29.70;54.18
65707;SHT31;52423;43.512;5.220;2023-08-20T08:51:44;29.60;54.42
65707;SHT31;52423;43.512;5.220;2023-08-20T08:54:12;29.77;54.52
65707;SHT31;52423;43.512;5.220;2023-08-20T08:56:39;29.74;54.06
65707;SHT31;52423;43.512;5.220;2023-08-20T08:59:04;29.82;54.19
65707;SHT31;52423;43.512;5.220;2023-08-20T09:01:30;29.94;53.81
65707;SHT31;52423;43.512;5.220;2023-08-20T09:03:56;30.28;52.56
65707;SHT31;52423;43.512;5.220;2023-08-20T09:06:22;30.21;52.54
65707;SHT31;52423;43.512;5.220;2023-08-20T09:08:47;30.05;52.51
65707;SHT31;52423;43.512;5.220;2023-08-20T09:11:12;29.97;52.39
65707;SHT31;52423;43.512;5.220;2023-08-20T09:13:39;30.05;51.74
65707;SHT31;52423;43.512;5.220;2023-08-20T09:16:10;30.23;51.48
65707;SHT31;52423;43.512;5.220;2023-08-20T09:18:44;30.26;50.81
65707;SHT31;52423;43.512;5.220;2023-08-20T09:21:11;30.37;49.87
65707;SHT31;52423;43.512;5.220;2023-08-20T09:23:38;30.70;49.29
65707;SHT31;52423;43.512;5.220;2023-08-20T09:26:06;30.90;47.34
65707;SHT31;52423;43.512;5.220;2023-08-20T09:28:45;31.17;45.97
65707;SHT31;52423;43.512;5.220;2023-08-20T09:31:12;31.31;45.16
65707;SHT31;52423;43.512;5.220;2023-08-20T09:33:51;31.35;39.81
65707;SHT31;52423;43.512;5.220;2023-08-20T09:36:18;31.52;38.97
65707;SHT31;52423;43.512;5.220;2023-08-20T09:38:43;31.69;37.64
65707;SHT31;52423;43.512;5.220;2023-08-20T09:41:09;31.99;36.64
65707;SHT31;52423;43.512;5.220;2023-08-20T09:43:38;32.23;38.10
65707;SHT31;52423;43.512;5.220;2023-08-20T09:46:03;32.34;35.87
65707;SHT31;52423;43.512;5.220;2023-08-20T09:48:33;32.44;34.97
65707;SHT31;52423;43.512;5.220;2023-08-20T09:51:04;32.56;36.07
65707;SHT31;52423;43.512;5.220;2023-08-20T09:53:36;32.71;35.75
65707;SHT31;52423;43.512;5.220;2023-08-20T09:56:38;32.65;36.16
65707;SHT31;52423;43.512;5.220;2023-08-20T09:59:03;32.77;32.19
65707;SHT31;52423;43.512;5.220;2023-08-20T10:01:30;32.91;32.13
65707;SHT31;52423;43.512;5.220;2023-08-20T10:03:56;33.11;34.30
65707;SHT31;52423;43.512;5.220;2023-08-20T10:06:23;32.94;34.80
65707;SHT31;52423;43.512;5.220;2023-08-20T10:08:50;32.97;35.64
65707;SHT31;52423;43.512;5.220;2023-08-20T10:11:16;33.22;36.90
65707;SHT31;52423;43.512;5.220;2023-08-20T10:13:42;33.32;36.54
65707;SHT31;52423;43.512;5.220;2023-08-20T10:16:08;33.56;36.18
65707;SHT31;52423;43.512;5.220;2023-08-20T10:18:37;33.65;33.99
65707;SHT31;52423;43.512;5.220;2023-08-20T10:21:02;33.66;34.08
65707;SHT31;52423;43.512;5.220;2023-08-20T10:23:30;33.85;33.30
65707;SHT31;52423;43.512;5.220;2023-08-20T10:26:07;33.99;33.60
65707;SHT31;52423;43.512;5.220;2023-08-20T10:28:34;33.96;34.04
65707;SHT31;52423;43.512;5.220;2023-08-20T10:31:07;34.13;34.49
65707;SHT31;52423;43.512;5.220;2023-08-20T10:36:29;34.17;34.65
65707;SHT31;52423;43.512;5.220;2023-08-20T10:38:55;34.38;34.26
65707;SHT31;52423;43.512;5.220;2023-08-20T10:41:28;34.48;34.00
65707;SHT31;52423;43.512;5.220;2023-08-20T10:44:00;34.52;34.58
65707;SHT31;52423;43.512;5.220;2023-08-20T10:46:27;34.79;33.49
65707;SHT31;52423;43.512;5.220;2023-08-20T10:48:57;34.67;34.05
65707;SHT31;52423;43.512;5.220;2023-08-20T10:51:38;34.48;34.52
65707;SHT31;52423;43.512;5.220;2023-08-20T10:54:07;34.82;34.45
65707;SHT31;52423;43.512;5.220;2023-08-20T10:59:17;34.81;35.08
65707;SHT31;52423;43.512;5.220;2023-08-20T11:01:56;34.88;35.14
65707;SHT31;52423;43.512;5.220;2023-08-20T11:04:25;34.84;35.35
65707;SHT31;52423;43.512;5.220;2023-08-20T11:06:55;34.78;35.18
65707;SHT31;52423;43.512;5.220;2023-08-20T11:09:22;34.78;35.50
65707;SHT31;52423;43.512;5.220;2023-08-20T11:11:48;35.08;35.43
65707;SHT31;52423;43.512;5.220;2023-08-20T11:14:14;35.13;34.19
65707;SHT31;52423;43.512;5.220;2023-08-20T11:16:41;35.00;34.38
65707;SHT31;52423;43.512;5.220;2023-08-20T11:19:08;35.12;33.37
65707;SHT31;52423;43.512;5.220;2023-08-20T11:21:40;35.25;33.14
65707;SHT31;52423;43.512;5.220;2023-08-20T11:24:07;35.40;32.59
65707;SHT31;52423;43.512;5.220;2023-08-20T11:26:34;35.49;31.98
65707;SHT31;52423;43.512;5.220;2023-08-20T11:29:10;35.78;31.57
65707;SHT31;52423;43.512;5.220;2023-08-20T11:31:36;35.81;31.31
65707;SHT31;52423;43.512;5.220;2023-08-20T11:34:03;35.74;30.45
65707;SHT31;52423;43.512;5.220;2023-08-20T11:36:28;35.69;30.93
65707;SHT31;52423;43.512;5.220;2023-08-20T11:38:54;35.66;31.11
65707;SHT31;52423;43.512;5.220;2023-08-20T11:41:21;35.74;30.31
65707;SHT31;52423;43.512;5.220;2023-08-20T11:43:47;36.04;30.02
65707;SHT31;52423;43.512;5.220;2023-08-20T11:46:18;35.87;31.39
65707;SHT31;52423;43.512;5.220;2023-08-20T11:51:55;36.04;31.26
65707;SHT31;52423;43.512;5.220;2023-08-20T11:54:20;36.01;31.52
65707;SHT31;52423;43.512;5.220;2023-08-20T11:56:50;36.18;31.25
65707;SHT31;52423;43.512;5.220;2023-08-20T11:59:17;36.27;29.20
65707;SHT31;52423;43.512;5.220;2023-08-20T12:01:43;36.46;30.51
65707;SHT31;52423;43.512;5.220;2023-08-20T12:04:09;36.49;30.25
65707;SHT31;52423;43.512;5.220;2023-08-20T12:06:36;36.49;30.46
65707;SHT31;52423;43.512;5.220;2023-08-20T12:09:12;36.56;29.02
65707;SHT31;52423;43.512;5.220;2023-08-20T12:11:51;36.62;29.81
65707;SHT31;52423;43.512;5.220;2023-08-20T12:14:18;36.74;29.32
65707;SHT31;52423;43.512;5.220;2023-08-20T12:16:43;36.62;29.50
65707;SHT31;52423;43.512;5.220;2023-08-20T12:19:08;36.56;30.56
65707;SHT31;52423;43.512;5.220;2023-08-20T12:21:34;36.62;31.41
65707;SHT31;52423;43.512;5.220;2023-08-20T12:24:00;36.66;31.78
65707;SHT31;52423;43.512;5.220;2023-08-20T12:26:25;36.45;32.13
65707;SHT31;52423;43.512;5.220;2023-08-20T12:28:51;36.44;33.09
65707;SHT31;52423;43.512;5.220;2023-08-20T12:31:16;36.55;32.69
65707;SHT31;52423;43.512;5.220;2023-08-20T12:33:42;36.74;33.28
65707;SHT31;52423;43.512;5.220;2023-08-20T12:36:08;36.97;31.21
65707;SHT31;52423;43.512;5.220;2023-08-20T12:38:33;36.72;30.21
65707;SHT31;52423;43.512;5.220;2023-08-20T12:41:00;36.68;29.39
65707;SHT31;52423;43.512;5.220;2023-08-20T12:43:26;36.68;31.02
65707;SHT31;52423;43.512;5.220;2023-08-20T12:45:51;36.71;30.96
65707;SHT31;52423;43.512;5.220;2023-08-20T12:48:17;36.69;31.75
65707;SHT31;52423;43.512;5.220;2023-08-20T12:50:42;36.79;29.53
65707;SHT31;52423;43.512;5.220;2023-08-20T12:53:08;36.75;30.51
65707;SHT31;52423;43.512;5.220;2023-08-20T12:55:33;36.76;31.93
65707;SHT31;52423;43.512;5.220;2023-08-20T12:57:59;36.92;28.08
65707;SHT31;52423;43.512;5.220;2023-08-20T13:00:26;37.10;30.01
65707;SHT31;52423;43.512;5.220;2023-08-20T13:02:53;37.09;31.42
65707;SHT31;52423;43.512;5.220;2023-08-20T13:05:20;37.04;32.02
65707;SHT31;52423;43.512;5.220;2023-08-20T13:07:46;36.95;31.89
65707;SHT31;52423;43.512;5.220;2023-08-20T13:10:12;36.95;32.62
65707;SHT31;52423;43.512;5.220;2023-08-20T13:12:42;36.90;32.32
65707;SHT31;52423;43.512;5.220;2023-08-20T13:15:13;36.59;33.55
65707;SHT31;52423;43.512;5.220;2023-08-20T13:17:39;36.68;33.77
65707;SHT31;52423;43.512;5.220;2023-08-20T13:20:04;36.78;33.79
65707;SHT31;52423;43.512;5.220;2023-08-20T13:22:30;36.55;31.94
65707;SHT31;52423;43.512;5.220;2023-08-20T13:24:56;36.48;33.86
65707;SHT31;52423;43.512;5.220;2023-08-20T13:27:21;36.52;33.27
65707;SHT31;52423;43.512;5.220;2023-08-20T13:29:47;36.56;31.69
65707;SHT31;52423;43.512;5.220;2023-08-20T13:32:12;36.68;33.63
65707;SHT31;52423;43.512;5.220;2023-08-20T13:34:37;37.04;34.36
65707;SHT31;52423;43.512;5.220;2023-08-20T13:37:03;36.90;34.06
65707;SHT31;52423;43.512;5.220;2023-08-20T13:39:28;37.06;33.68
65707;SHT31;52423;43.512;5.220;2023-08-20T13:41:54;36.92;33.09
65707;SHT31;52423;43.512;5.220;2023-08-20T13:44:19;36.58;32.89
65707;SHT31;52423;43.512;5.220;2023-08-20T13:46:45;36.90;33.73
65707;SHT31;52423;43.512;5.220;2023-08-20T13:49:10;37.03;34.19
65707;SHT31;52423;43.512;5.220;2023-08-20T13:51:36;36.76;33.94
65707;SHT31;52423;43.512;5.220;2023-08-20T13:54:01;36.83;32.20
65707;SHT31;52423;43.512;5.220;2023-08-20T13:56:27;36.79;33.10
65707;SHT31;52423;43.512;5.220;2023-08-20T13:58:53;36.85;34.04
65707;SHT31;52423;43.512;5.220;2023-08-20T14:01:18;36.79;32.63
65707;SHT31;52423;43.512;5.220;2023-08-20T14:03:44;36.72;33.42
65707;SHT31;52423;43.512;5.220;2023-08-20T14:06:09;36.79;33.28
65707;SHT31;52423;43.512;5.220;2023-08-20T14:08:35;36.61;33.54
65707;SHT31;52423;43.512;5.220;2023-08-20T14:11:00;36.71;33.59
65707;SHT31;52423;43.512;5.220;2023-08-20T14:13:25;36.74;33.11
65707;SHT31;52423;43.512;5.220;2023-08-20T14:15:51;36.66;32.99
65707;SHT31;52423;43.512;5.220;2023-08-20T14:18:16;36.39;33.46
65707;SHT31;52423;43.512;5.220;2023-08-20T14:20:42;36.34;33.48
65707;SHT31;52423;43.512;5.220;2023-08-20T14:23:07;36.53;33.12
65707;SHT31;52423;43.512;5.220;2023-08-20T14:25:32;36.42;32.96
65707;SHT31;52423;43.512;5.220;2023-08-20T14:27:58;36.31;32.68
65707;SHT31;52423;43.512;5.220;2023-08-20T14:30:23;36.09;32.98
65707;SHT31;52423;43.512;5.220;2023-08-20T14:32:48;36.28;32.98
65707;SHT31;52423;43.512;5.220;2023-08-20T14:35:14;36.09;33.00
65707;SHT31;52423;43.512;5.220;2023-08-20T14:37:39;36.21;32.69
65707;SHT31;52423;43.512;5.220;2023-08-20T14:40:05;36.14;31.93
65707;SHT31;52423;43.512;5.220;2023-08-20T14:42:32;36.12;32.17
65707;SHT31;52423;43.512;5.220;2023-08-20T14:44:57;36.05;31.71
65707;SHT31;52423;43.512;5.220;2023-08-20T14:47:23;35.96;31.91
65707;SHT31;52423;43.512;5.220;2023-08-20T14:49:48;35.77;32.14
65707;SHT31;52423;43.512;5.220;2023-08-20T14:52:14;35.83;31.75
65707;SHT31;52423;43.512;5.220;2023-08-20T14:54:39;35.74;31.93
65707;SHT31;52423;43.512;5.220;2023-08-20T14:57:07;35.56;32.68
65707;SHT31;52423;43.512;5.220;2023-08-20T14:59:32;35.33;33.05
65707;SHT31;52423;43.512;5.220;2023-08-20T15:01:58;35.37;33.00
65707;SHT31;52423;43.512;5.220;2023-08-20T15:04:23;35.53;32.87
65707;SHT31;52423;43.512;5.220;2023-08-20T15:06:49;35.42;33.45
65707;SHT31;52423;43.512;5.220;2023-08-20T15:09:14;35.18;34.02
65707;SHT31;52423;43.512;5.220;2023-08-20T15:11:41;35.06;34.16
65707;SHT31;52423;43.512;5.220;2023-08-20T15:14:07;34.98;33.67
65707;SHT31;52423;43.512;5.220;2023-08-20T15:16:33;34.82;34.05
65707;SHT31;52423;43.512;5.220;2023-08-20T15:18:58;34.94;34.18
65707;SHT31;52423;43.512;5.220;2023-08-20T15:21:23;34.89;34.44
65707;SHT31;52423;43.512;5.220;2023-08-20T15:23:49;34.85;33.34
65707;SHT31;52423;43.512;5.220;2023-08-20T15:26:14;34.67;33.85
65707;SHT31;52423;43.512;5.220;2023-08-20T15:28:40;34.79;33.55
65707;SHT31;52423;43.512;5.220;2023-08-20T15:31:05;34.69;32.77
65707;SHT31;52423;43.512;5.220;2023-08-20T15:33:30;34.78;32.76
65707;SHT31;52423;43.512;5.220;2023-08-20T15:35:57;34.67;32.12
65707;SHT31;52423;43.512;5.220;2023-08-20T15:38:23;34.45;32.81